Time;durP1;ratioP1;P1;durP2;ratioP2;P2;SDS_P1;SDS_P2;PMS_P1;PMS_P2;Temp;Humidity;BMP_temperature;BMP_pressure;BME280_temperature;BME280_humidity;BME280_pressure;Samples;Min_cycle;Max_cycle;Signal;HPM_P1;HPM_P2
2022/12/25 00:01:31;;;;;;;6.60;2.00;;;16.20;99.90;;;;;;5013802;28;20033;-72
2022/12/25 00:03:57;;;;;;;4.80;2.20;;;16.20;99.90;;;;;;4997034;28;20042;-73
2022/12/25 00:06:26;;;;;;;5.25;2.00;;;16.10;99.90;;;;;;5014023;28;20029;-71
2022/12/25 00:08:53;;;;;;;5.95;2.13;;;16.20;99.90;;;;;;5014400;28;20121;-71
2022/12/25 00:11:19;;;;;;;6.38;2.35;;;16.10;99.90;;;;;;5013666;28;20025;-70
2022/12/25 00:13:46;;;;;;;7.63;2.13;;;16.10;99.90;;;;;;5014922;28;20026;-72
2022/12/25 00:16:15;;;;;;;;;;;16.10;99.90;;;;;;5014264;28;20033;-71
2022/12/25 00:18:41;;;;;;;7.57;2.50;;;16.10;99.90;;;;;;5013305;28;19917;-70
2022/12/25 00:21:07;;;;;;;8.27;2.37;;;16.10;99.90;;;;;;5012494;28;20018;-72
2022/12/25 00:23:35;;;;;;;6.28;2.03;;;16.10;99.90;;;;;;5012835;28;20324;-70
2022/12/25 00:26:07;;;;;;;;;;;16.10;99.90;;;;;;5015308;28;20521;-71
2022/12/25 00:28:35;;;;;;;7.03;2.60;;;16.10;99.90;;;;;;5012997;28;19909;-71
2022/12/25 00:31:15;;;;;;;7.13;2.75;;;16.20;99.90;;;;;;5013832;28;20385;-70
2022/12/25 00:33:49;;;;;;;7.18;2.40;;;16.10;99.90;;;;;;5013313;28;20037;-71
2022/12/25 00:36:18;;;;;;;7.05;2.33;;;16.10;99.90;;;;;;5014413;28;20068;-71
2022/12/25 00:38:45;;;;;;;6.50;2.20;;;16.00;99.90;;;;;;5012490;28;20069;-71
2022/12/25 00:41:13;;;;;;;5.70;2.60;;;15.90;99.90;;;;;;5011558;28;20149;-71
2022/12/25 00:43:43;;;;;;;7.30;2.33;;;15.90;99.90;;;;;;5012829;28;20041;-72
2022/12/25 00:46:13;;;;;;;6.72;2.45;;;15.90;99.90;;;;;;5013458;28;20026;-71
2022/12/25 00:48:44;;;;;;;7.90;2.22;;;15.80;99.90;;;;;;5013177;28;20521;-73
2022/12/25 00:51:12;;;;;;;5.70;2.20;;;15.80;99.90;;;;;;5013153;28;20128;-71
2022/12/25 00:53:41;;;;;;;10.05;2.45;;;15.80;99.90;;;;;;5013335;28;20045;-72
2022/12/25 00:56:11;;;;;;;5.15;2.20;;;15.70;99.90;;;;;;5012527;28;20057;-70
2022/12/25 00:58:37;;;;;;;5.47;2.10;;;15.70;99.90;;;;;;5013810;28;20078;-70
2022/12/25 01:01:03;;;;;;;8.30;2.20;;;15.70;99.90;;;;;;5011888;28;20030;-70
2022/12/25 01:03:29;;;;;;;5.57;2.42;;;15.80;99.90;;;;;;5013559;28;20061;-70
2022/12/25 01:05:59;;;;;;;7.00;2.60;;;15.80;99.90;;;;;;5014192;28;20049;-71
2022/12/25 01:08:25;;;;;;;3.83;2.00;;;15.70;99.90;;;;;;5013218;28;20387;-71
2022/12/25 01:10:56;;;;;;;5.78;2.33;;;15.70;99.90;;;;;;5013589;28;20025;-72
2022/12/25 01:13:23;;;;;;;5.93;2.65;;;15.70;99.90;;;;;;5013090;28;20033;-70
2022/12/25 01:15:51;;;;;;;10.30;2.30;;;15.70;99.90;;;;;;5012929;28;20064;-70
2022/12/25 01:18:22;;;;;;;6.38;2.50;;;15.60;99.90;;;;;;5013212;28;20079;-70
2022/12/25 01:20:48;;;;;;;8.25;2.25;;;15.70;99.90;;;;;;5012575;28;20048;-68
2022/12/25 01:23:15;;;;;;;5.70;2.42;;;15.70;99.90;;;;;;5011668;28;20117;-70
2022/12/25 01:25:41;;;;;;;9.70;2.50;;;15.60;99.90;;;;;;5013837;28;20134;-71
2022/12/25 01:28:07;;;;;;;6.18;2.22;;;15.70;99.90;;;;;;5012634;28;20034;-70
2022/12/25 01:30:34;;;;;;;9.18;2.58;;;15.80;99.90;;;;;;5012340;28;20034;-70
2022/12/25 01:33:00;;;;;;;5.75;2.13;;;15.90;99.90;;;;;;5012449;28;20064;-70
2022/12/25 01:35:26;;;;;;;6.93;2.27;;;15.90;99.90;;;;;;5013658;28;20034;-71
2022/12/25 01:37:52;;;;;;;3.70;2.00;;;16.00;99.90;;;;;;5012840;28;20273;-71
2022/12/25 01:40:19;;;;;;;6.53;2.20;;;16.10;99.90;;;;;;5013326;28;20034;-70
2022/12/25 01:42:47;;;;;;;6.93;2.13;;;16.10;99.90;;;;;;5012067;28;20406;-71
2022/12/25 01:45:25;;;;;;;7.53;2.50;;;16.10;99.90;;;;;;5012678;28;20276;-70
2022/12/25 01:47:53;;;;;;;9.63;2.60;;;16.10;99.90;;;;;;5012897;28;20022;-72
2022/12/25 01:50:21;;;;;;;6.13;2.20;;;16.10;99.90;;;;;;5012906;28;20419;-71
2022/12/25 01:52:51;;;;;;;5.10;2.10;;;16.10;99.90;;;;;;4994363;28;20046;-71
2022/12/25 01:55:17;;;;;;;5.88;1.95;;;16.00;99.90;;;;;;5013363;28;20493;-72
2022/12/25 01:57:45;;;;;;;6.28;2.08;;;16.00;99.90;;;;;;5012730;28;20021;-70
2022/12/25 02:00:12;;;;;;;7.57;2.35;;;16.00;99.90;;;;;;5011846;28;20049;-71
2022/12/25 02:02:40;;;;;;;7.00;2.30;;;16.00;99.90;;;;;;5011622;28;20398;-70
2022/12/25 02:05:28;;;;;;;7.72;2.20;;;16.10;99.90;;;;;;5012905;28;20533;-71
2022/12/25 02:07:58;;;;;;;4.97;2.05;;;16.10;99.90;;;;;;5013372;28;20022;-73
2022/12/25 02:10:25;;;;;;;5.63;1.90;;;16.10;99.90;;;;;;5012757;28;20504;-71
2022/12/25 02:12:57;;;;;;;5.90;1.95;;;16.10;99.90;;;;;;5011724;28;20022;-71
2022/12/25 02:15:31;;;;;;;5.35;1.90;;;16.10;99.90;;;;;;5012847;28;20040;-71
2022/12/25 02:18:06;;;;;;;3.28;1.90;;;16.10;99.90;;;;;;5012837;28;20037;-71
2022/12/25 02:21:08;;;;;;;4.68;1.80;;;16.10;99.90;;;;;;5012179;28;20061;-71
2022/12/25 02:23:47;;;;;;;4.72;1.70;;;16.10;99.90;;;;;;5008753;28;20438;-70
2022/12/25 02:26:26;;;;;;;5.18;1.80;;;16.10;99.90;;;;;;5012836;28;20029;-71
2022/12/25 02:29:03;;;;;;;5.45;2.30;;;16.10;99.90;;;;;;5011087;28;20026;-70
2022/12/25 02:31:29;;;;;;;4.85;1.90;;;16.10;99.90;;;;;;5010678;28;20037;-70
2022/12/25 02:34:35;;;;;;;7.33;1.97;;;16.10;99.90;;;;;;5011865;28;20041;-70
2022/12/25 02:37:11;;;;;;;5.45;1.88;;;16.10;99.90;;;;;;4998074;28;20331;-71
2022/12/25 02:40:09;;;;;;;5.13;1.92;;;16.00;99.90;;;;;;5012192;28;20081;-70
2022/12/25 03:08:33;;;;;;;6.25;2.13;;;15.70;99.90;;;;;;5012106;28;20084;-71
2022/12/25 03:13:52;;;;;;;4.90;2.03;;;15.60;99.90;;;;;;5007883;28;20052;-71
2022/12/25 03:26:53;;;;;;;6.95;1.92;;;15.50;99.90;;;;;;5010768;28;20053;-71
2022/12/25 03:27:23;;;;;;;3.42;1.50;;;15.30;99.90;;;;;;5005047;28;20140;-71
2022/12/25 03:32:47;;;;;;;7.50;1.98;;;15.60;99.90;;;;;;5009190;28;19990;-70
2022/12/25 03:35:46;;;;;;;4.53;1.55;;;15.80;99.90;;;;;;5011313;28;20101;-71
2022/12/25 04:38:05;;;;;;;4.13;1.67;;;15.40;99.90;;;;;;5014253;28;20120;-70
2022/12/25 04:40:34;;;;;;;6.22;1.80;;;15.30;99.90;;;;;;4995255;28;20133;-70
2022/12/25 04:43:01;;;;;;;3.22;1.50;;;15.30;99.90;;;;;;5011846;28;20046;-71
2022/12/25 04:45:31;;;;;;;3.10;1.45;;;15.20;99.90;;;;;;4996880;28;20030;-71
2022/12/25 04:48:00;;;;;;;3.95;1.63;;;15.10;99.90;;;;;;5013427;28;20501;-71
2022/12/25 04:50:27;;;;;;;4.30;1.60;;;15.00;99.90;;;;;;5013899;28;20342;-71
2022/12/25 04:52:53;;;;;;;;;;;15.10;99.90;;;;;;5012760;28;20129;-71
2022/12/25 04:55:21;;;;;;;7.00;2.20;;;15.10;99.90;;;;;;5011589;28;19989;-71
2022/12/25 04:57:48;;;;;;;6.50;1.80;;;15.00;99.90;;;;;;5012207;28;20435;-69
2022/12/25 05:00:14;;;;;;;4.45;1.65;;;14.90;99.90;;;;;;5012923;28;20431;-70
2022/12/25 05:02:42;;;;;;;5.65;1.95;;;14.80;99.90;;;;;;5010846;28;20033;-70
2022/12/25 05:05:09;;;;;;;12.43;2.00;;;14.80;99.90;;;;;;5013779;28;20026;-71
2022/12/25 05:07:37;;;;;;;5.25;1.83;;;14.70;99.90;;;;;;4993150;28;20097;-69
2022/12/25 05:10:04;;;;;;;9.23;2.63;;;14.70;99.90;;;;;;5008783;28;20022;-71
2022/12/25 05:12:30;;;;;;;9.77;2.30;;;14.70;99.90;;;;;;5008292;28;20168;-69
2022/12/25 05:14:56;;;;;;;5.00;1.88;;;14.60;99.90;;;;;;5011890;28;20472;-70
2022/12/25 05:17:23;;;;;;;6.47;2.00;;;14.60;99.90;;;;;;5007874;28;20034;-69
2022/12/25 05:19:49;;;;;;;7.63;2.10;;;14.60;99.90;;;;;;5007657;28;20299;-69
2022/12/25 05:22:15;;;;;;;6.00;1.97;;;14.60;99.90;;;;;;5008201;28;20021;-68
2022/12/25 05:24:43;;;;;;;5.55;1.85;;;14.60;99.90;;;;;;5012944;28;20723;-69
2022/12/25 05:27:09;;;;;;;4.07;2.00;;;14.60;99.90;;;;;;5010417;28;20035;-69
2022/12/25 05:29:38;;;;;;;4.93;1.88;;;14.60;99.90;;;;;;5013360;28;20109;-70
2022/12/25 05:32:06;;;;;;;6.50;2.05;;;14.70;99.90;;;;;;5011940;28;20033;-70
2022/12/25 05:34:33;;;;;;;4.88;1.70;;;14.70;99.90;;;;;;5014231;28;20126;-69
2022/12/25 05:37:00;;;;;;;5.70;2.10;;;14.80;99.90;;;;;;5014196;28;20037;-69
2022/12/25 05:39:26;;;;;;;6.68;1.98;;;14.90;99.90;;;;;;5013917;28;20033;-69
2022/12/25 05:41:52;;;;;;;3.80;1.60;;;15.00;99.90;;;;;;5011693;28;20566;-70
2022/12/25 05:44:18;;;;;;;5.37;1.50;;;15.10;99.90;;;;;;5011115;28;20355;-68
2022/12/25 05:46:44;;;;;;;5.05;1.52;;;15.30;99.90;;;;;;5013710;28;20645;-67
2022/12/25 05:49:13;;;;;;;3.55;1.40;;;15.40;99.90;;;;;;5013186;28;20038;-70
2022/12/25 05:51:41;;;;;;;3.63;1.38;;;15.60;99.90;;;;;;4951056;28;20035;-70
2022/12/25 05:54:08;;;;;;;3.65;1.27;;;15.60;99.90;;;;;;4951792;28;20046;-71
2022/12/25 05:56:36;;;;;;;2.92;1.40;;;15.60;99.90;;;;;;4951163;29;20103;-69
2022/12/25 05:59:04;;;;;;;5.03;1.40;;;15.50;99.90;;;;;;4945383;29;20187;-71
2022/12/25 06:01:30;;;;;;;3.55;1.50;;;15.50;99.90;;;;;;4934997;29;20034;-70
2022/12/25 06:03:56;;;;;;;;;;;15.40;99.90;;;;;;4950713;28;20075;-70
2022/12/25 06:06:22;;;;;;;3.47;1.33;;;15.40;99.90;;;;;;4952429;29;20454;-72
2022/12/25 06:08:52;;;;;;;4.63;1.30;;;15.50;99.90;;;;;;4935446;29;20033;-70
2022/12/25 06:11:18;;;;;;;3.63;1.23;;;15.60;99.90;;;;;;4935103;29;20299;-71
2022/12/25 06:13:50;;;;;;;5.47;1.60;;;15.60;99.90;;;;;;4950036;28;20047;-71
2022/12/25 06:16:18;;;;;;;4.78;1.38;;;15.70;99.90;;;;;;4952118;29;20530;-73
2022/12/25 06:18:48;;;;;;;2.63;1.20;;;15.80;99.90;;;;;;4935705;29;20546;-75
2022/12/25 06:21:15;;;;;;;3.53;1.35;;;15.90;99.90;;;;;;4952078;29;20087;-73
2022/12/25 06:23:44;;;;;;;4.60;1.42;;;15.90;99.90;;;;;;4951716;29;20062;-72
2022/12/25 06:26:13;;;;;;;2.65;1.08;;;15.80;99.90;;;;;;4934873;29;20034;-72
2022/12/25 06:28:39;;;;;;;3.42;1.20;;;15.70;99.90;;;;;;4971737;28;20038;-72
2022/12/25 06:31:12;;;;;;;3.08;1.33;;;15.70;99.90;;;;;;5011804;28;20026;-73
2022/12/25 06:33:38;;;;;;;3.05;1.33;;;15.80;99.90;;;;;;5011446;28;20030;-72
2022/12/25 06:36:10;;;;;;;4.35;1.30;;;15.90;99.90;;;;;;5010764;28;20078;-73
2022/12/25 06:38:36;;;;;;;2.60;1.23;;;16.00;99.90;;;;;;5010032;28;20469;-74
2022/12/25 06:41:04;;;;;;;2.47;1.17;;;16.10;99.90;;;;;;5012428;28;20025;-72
2022/12/25 06:43:31;;;;;;;1.90;0.90;;;16.20;99.90;;;;;;5011449;28;20397;-72
2022/12/25 06:46:01;;;;;;;;;;;16.50;99.90;;;;;;5012194;28;20072;-72
2022/12/25 06:48:30;;;;;;;3.10;1.35;;;16.90;99.90;;;;;;5012066;28;20361;-71
2022/12/25 06:50:59;;;;;;;3.15;1.10;;;17.30;99.90;;;;;;5010849;28;20117;-73
2022/12/25 06:53:26;;;;;;;2.72;1.20;;;17.60;99.90;;;;;;4995856;28;20129;-70
2022/12/25 06:55:53;;;;;;;3.28;1.00;;;17.90;99.90;;;;;;4995622;28;20034;-70
2022/12/25 06:58:22;;;;;;;3.38;1.10;;;18.10;99.90;;;;;;4994808;28;20711;-70
2022/12/25 07:00:50;;;;;;;2.40;1.13;;;18.30;99.90;;;;;;5005854;28;20112;-71
2022/12/25 07:03:20;;;;;;;2.85;1.15;;;18.60;99.90;;;;;;4992234;28;20025;-71
2022/12/25 07:05:46;;;;;;;2.63;1.20;;;18.70;99.90;;;;;;5008858;28;20049;-71
2022/12/25 07:08:14;;;;;;;2.88;1.20;;;19.70;99.90;;;;;;4996157;28;20120;-74
2022/12/25 07:10:40;;;;;;;2.28;1.08;;;20.70;99.90;;;;;;4995584;28;20912;-71
2022/12/25 07:13:06;;;;;;;2.22;0.90;;;21.80;99.90;;;;;;4996886;28;20161;-73
2022/12/25 07:15:32;;;;;;;3.60;0.90;;;22.00;99.90;;;;;;5004369;28;20076;-72
2022/12/25 07:17:58;;;;;;;2.08;0.80;;;22.50;99.90;;;;;;5012503;28;20088;-72
2022/12/25 07:20:24;;;;;;;3.60;0.95;;;22.70;99.90;;;;;;5010945;28;20044;-72
2022/12/25 07:22:51;;;;;;;3.42;0.95;;;22.90;99.90;;;;;;4992036;28;20434;-72
2022/12/25 07:25:17;;;;;;;2.50;0.98;;;23.60;99.90;;;;;;4990769;28;20332;-73
2022/12/25 07:27:48;;;;;;;1.85;0.73;;;23.90;99.90;;;;;;5011647;28;20118;-73
2022/12/25 07:30:14;;;;;;;2.58;0.70;;;24.50;99.90;;;;;;5011891;28;20025;-72
2022/12/25 07:32:40;;;;;;;4.18;1.10;;;24.80;99.90;;;;;;5009572;28;20029;-72
2022/12/25 07:35:07;;;;;;;4.93;1.13;;;25.50;99.90;;;;;;5011400;28;20046;-73
2022/12/25 07:37:33;;;;;;;2.75;1.00;;;24.40;99.90;;;;;;5011548;28;20029;-71
2022/12/25 07:40:00;;;;;;;4.00;0.85;;;24.10;99.90;;;;;;5011877;28;20034;-72
2022/12/25 07:42:26;;;;;;;3.15;0.90;;;24.70;99.90;;;;;;5009616;28;20418;-72
2022/12/25 07:44:55;;;;;;;7.30;1.05;;;25.20;99.90;;;;;;5009248;28;20090;-71
2022/12/25 07:47:25;;;;;;;2.95;1.20;;;25.50;99.90;;;;;;5013090;28;20037;-69
2022/12/25 07:49:54;;;;;;;6.10;1.50;;;25.20;99.90;;;;;;4999556;28;20034;-73
2022/12/25 07:52:20;;;;;;;4.72;1.48;;;24.50;99.90;;;;;;5010771;28;20331;-74
2022/12/25 07:54:47;;;;;;;3.70;1.50;;;23.90;99.90;;;;;;5015265;28;20037;-73
2022/12/25 07:57:14;;;;;;;10.45;1.80;;;23.40;99.90;;;;;;5014517;28;20141;-76
2022/12/25 07:59:41;;;;;;;6.78;1.90;;;22.80;99.90;;;;;;5004955;28;20049;-75
2022/12/25 08:02:10;;;;;;;8.30;1.60;;;22.30;99.90;;;;;;5012789;28;20030;-75
2022/12/25 08:04:37;;;;;;;3.70;1.80;;;22.20;99.90;;;;;;5019380;28;20022;-75
2022/12/25 08:07:03;;;;;;;4.65;1.90;;;22.00;99.90;;;;;;5015068;28;20029;-74
2022/12/25 08:09:30;;;;;;;6.15;2.00;;;21.90;99.90;;;;;;4995730;28;20034;-75
2022/12/25 08:11:56;;;;;;;3.78;1.75;;;21.80;99.90;;;;;;4996061;28;20473;-72
2022/12/25 08:14:25;;;;;;;4.30;2.10;;;21.60;99.90;;;;;;5016531;28;20053;-75
2022/12/25 08:16:52;;;;;;;6.22;2.42;;;21.40;99.90;;;;;;5013636;28;20030;-75
2022/12/25 08:19:18;;;;;;;8.90;2.42;;;21.20;99.90;;;;;;5010761;28;20041;-76
2022/12/25 08:21:45;;;;;;;9.93;2.50;;;21.10;99.90;;;;;;5013146;28;20033;-74
2022/12/25 08:24:12;;;;;;;8.32;2.38;;;21.10;99.90;;;;;;5012144;28;20031;-74
2022/12/25 08:26:39;;;;;;;7.10;1.80;;;20.80;99.90;;;;;;5015085;28;20030;-74
2022/12/25 08:29:05;;;;;;;6.82;1.60;;;20.90;99.90;;;;;;5015362;28;20040;-73
2022/12/25 08:31:33;;;;;;;7.03;1.75;;;21.00;99.90;;;;;;5006096;28;20086;-75
2022/12/25 08:34:02;;;;;;;6.47;1.52;;;20.80;99.90;;;;;;4999101;28;20057;-75
2022/12/25 08:36:30;;;;;;;3.75;1.60;;;20.60;99.90;;;;;;5005877;28;20053;-76
2022/12/25 08:38:59;;;;;;;5.13;1.75;;;20.40;99.90;;;;;;5014685;28;20357;-76
2022/12/25 08:41:26;;;;;;;6.53;1.75;;;20.30;99.90;;;;;;5012655;28;20026;-74
2022/12/25 08:43:53;;;;;;;5.82;1.80;;;20.40;99.90;;;;;;5011166;28;20129;-73
2022/12/25 08:46:22;;;;;;;;;;;20.50;99.90;;;;;;5013394;28;20489;-74
2022/12/25 08:48:49;;;;;;;5.38;1.60;;;20.30;99.90;;;;;;5015383;28;19906;-72
2022/12/25 08:51:20;;;;;;;4.53;1.63;;;20.30;99.90;;;;;;5005870;28;20378;-79
2022/12/25 08:53:48;;;;;;;6.68;1.98;;;20.20;99.90;;;;;;5014198;28;20022;-71
2022/12/25 08:56:35;;;;;;;6.32;2.22;;;20.30;99.90;;;;;;5014247;28;20021;-81
2022/12/25 08:59:01;;;;;;;5.13;2.00;;;20.30;99.90;;;;;;5011939;28;20473;-75
2022/12/25 09:01:28;;;;;;;6.00;2.40;;;20.50;99.90;;;;;;5014437;28;20108;-79
2022/12/25 09:03:54;;;;;;;7.93;2.17;;;20.30;99.90;;;;;;5013776;28;20038;-76
2022/12/25 09:06:20;;;;;;;;;;;20.30;99.90;;;;;;5014708;28;20060;-75
2022/12/25 09:08:47;;;;;;;5.97;2.20;;;20.20;99.90;;;;;;5014362;28;19960;-79
2022/12/25 09:11:14;;;;;;;;;;;20.30;99.90;;;;;;5009042;28;20498;-76
2022/12/25 09:13:40;;;;;;;5.95;2.00;;;20.20;99.90;;;;;;5014305;28;19956;-74
2022/12/25 09:16:12;;;;;;;4.53;2.00;;;20.00;99.90;;;;;;4992917;28;20073;-75
2022/12/25 09:18:39;;;;;;;6.03;2.42;;;19.80;99.90;;;;;;5014786;28;20071;-73
2022/12/25 09:21:06;;;;;;;;;;;19.80;99.90;;;;;;5015373;28;20117;-75
2022/12/25 09:23:33;;;;;;;6.25;2.30;;;19.50;99.90;;;;;;5015292;28;19905;-74
2022/12/25 09:26:43;;;;;;;8.05;1.90;;;19.30;99.90;;;;;;5009865;28;20057;-73
2022/12/25 09:29:43;;;;;;;3.60;1.90;;;19.50;99.90;;;;;;5014426;28;20383;-73
2022/12/25 09:32:59;;;;;;;4.88;2.20;;;19.80;99.90;;;;;;5009589;28;20029;-75
2022/12/25 09:36:24;;;;;;;5.28;2.33;;;20.00;99.90;;;;;;5014919;28;20021;-74
2022/12/25 09:38:59;;;;;;;7.93;2.03;;;20.20;99.90;;;;;;4996665;28;20061;-76
2022/12/25 09:41:52;;;;;;;6.35;2.60;;;20.10;99.90;;;;;;5012924;28;20511;-77
2022/12/25 09:44:35;;;;;;;9.48;3.00;;;20.30;99.90;;;;;;5014544;28;20098;-76
2022/12/25 09:47:58;;;;;;;;;;;;;;;;;;;;;
2022/12/25 09:50:55;;;;;;;15.48;3.80;;;20.40;99.90;;;;;;4980355;28;20038;-78
2022/12/25 09:54:09;;;;;;;9.38;3.65;;;20.20;99.90;;;;;;4995826;28;20038;-83
2022/12/25 09:57:17;;;;;;;12.43;3.47;;;20.10;99.90;;;;;;5007341;28;20076;-74
2022/12/25 10:00:27;;;;;;;11.18;3.08;;;20.20;99.90;;;;;;5012553;28;20034;-77
2022/12/25 10:03:43;;;;;;;8.48;2.75;;;20.40;99.90;;;;;;4999510;28;20489;-74
2022/12/25 10:09:05;;;;;;;9.15;3.70;;;20.50;99.90;;;;;;5145053;23;20065;-74
2022/12/25 10:12:22;;;;;;;13.45;3.47;;;20.30;99.90;;;;;;4987771;28;20042;-72
2022/12/25 10:15:56;;;;;;;10.57;3.10;;;20.20;99.90;;;;;;4943189;28;20069;-75
2022/12/25 10:19:16;;;;;;;10.63;3.00;;;20.30;99.90;;;;;;4967555;28;20057;-73
2022/12/25 10:21:43;;;;;;;15.00;3.50;;;20.30;99.90;;;;;;4951650;28;20042;-78
2022/12/25 10:24:34;;;;;;;7.55;3.20;;;20.30;99.90;;;;;;4950905;28;20043;-76
2022/12/25 10:27:06;;;;;;;10.20;3.22;;;20.40;99.90;;;;;;4952021;29;20577;-78
2022/12/25 10:29:34;;;;;;;11.07;3.63;;;20.30;99.90;;;;;;4952269;29;20027;-75
2022/12/25 10:32:00;;;;;;;12.82;3.38;;;20.30;99.90;;;;;;4951626;29;20095;-78
2022/12/25 10:34:27;;;;;;;10.43;3.05;;;20.30;99.90;;;;;;4950895;28;20166;-77
2022/12/25 10:36:54;;;;;;;8.90;2.95;;;20.50;99.90;;;;;;4952121;29;20131;-76
2022/12/25 10:39:23;;;;;;;9.13;2.97;;;20.40;99.90;;;;;;4951696;29;20360;-76
2022/12/25 10:42:16;;;;;;;10.32;3.55;;;20.60;99.90;;;;;;4951397;28;20224;-75
2022/12/25 10:44:54;;;;;;;13.88;3.10;;;20.60;99.90;;;;;;4951534;29;20150;-76
2022/12/25 10:47:39;;;;;;;8.77;3.30;;;20.50;99.90;;;;;;4951707;29;20024;-76
2022/12/25 10:50:16;;;;;;;11.45;3.50;;;20.50;99.90;;;;;;4937873;28;20595;-75
2022/12/25 10:53:08;;;;;;;12.95;3.70;;;20.60;99.90;;;;;;5009739;28;20065;-78
2022/12/25 10:55:34;;;;;;;9.80;3.45;;;20.50;99.90;;;;;;5011130;28;20042;-78
2022/12/25 10:58:01;;;;;;;9.15;3.45;;;20.50;99.90;;;;;;5012196;28;20116;-77
2022/12/25 11:00:29;;;;;;;16.05;4.30;;;20.60;99.90;;;;;;5012370;28;20057;-78
2022/12/25 11:02:55;;;;;;;8.43;3.58;;;20.50;99.90;;;;;;5012106;28;20426;-78
2022/12/25 11:05:31;;;;;;;10.82;3.85;;;20.70;99.90;;;;;;5010150;28;20022;-75
2022/12/25 11:08:00;;;;;;;13.13;4.22;;;20.80;99.90;;;;;;5008263;28;20029;-77
2022/12/25 11:10:42;;;;;;;9.02;3.78;;;20.70;99.90;;;;;;5012007;28;20026;-78
2022/12/25 11:13:47;;;;;;;10.35;4.28;;;20.80;99.90;;;;;;5011158;28;20036;-77
2022/12/25 11:16:25;;;;;;;9.73;4.05;;;20.90;99.90;;;;;;4992423;28;20022;-74
2022/12/25 11:18:55;;;;;;;10.20;4.05;;;20.90;99.90;;;;;;4992471;28;20510;-77
2022/12/25 11:21:33;;;;;;;12.20;3.70;;;20.70;99.90;;;;;;5004473;28;20040;-77
2022/12/25 11:24:02;;;;;;;9.02;3.70;;;20.80;99.90;;;;;;5008772;28;20026;-76
2022/12/25 11:26:33;;;;;;;10.25;3.78;;;20.80;99.90;;;;;;5001024;28;20447;-77
2022/12/25 11:29:00;;;;;;;9.90;4.13;;;20.90;99.90;;;;;;5008837;28;20104;-75
2022/12/25 11:31:35;;;;;;;;;;;20.90;99.90;;;;;;5011704;28;20072;-71
2022/12/25 11:34:27;;;;;;;13.55;3.67;;;20.50;99.90;;;;;;5008873;28;19952;-73
2022/12/25 11:36:54;;;;;;;8.98;3.50;;;20.50;99.90;;;;;;5006144;28;20030;-74
2022/12/25 11:39:35;;;;;;;13.80;3.90;;;20.70;99.90;;;;;;5003096;28;20206;-75
2022/12/25 11:42:26;;;;;;;7.63;3.08;;;21.00;99.90;;;;;;5005365;28;20160;-72
2022/12/25 11:45:16;;;;;;;13.55;3.70;;;21.10;99.90;;;;;;4990466;28;20014;-74
2022/12/25 11:47:59;;;;;;;9.20;3.38;;;21.20;99.90;;;;;;4987639;28;20062;-78
2022/12/25 11:50:43;;;;;;;11.88;3.95;;;21.40;99.90;;;;;;5011351;28;20059;-73
2022/12/25 11:53:50;;;;;;;10.65;3.75;;;21.60;99.90;;;;;;4993435;28;20430;-76
2022/12/25 11:56:26;;;;;;;9.68;3.78;;;21.70;99.90;;;;;;4968259;28;20117;-74
2022/12/25 11:59:02;;;;;;;12.10;3.83;;;21.80;99.90;;;;;;4970543;28;20039;-74
2022/12/25 12:01:37;;;;;;;10.25;3.38;;;21.90;99.90;;;;;;4970293;28;20035;-73
2022/12/25 12:04:14;;;;;;;14.38;4.82;;;22.00;99.90;;;;;;4970455;28;20180;-74
2022/12/25 12:06:45;;;;;;;11.73;3.83;;;22.00;99.90;;;;;;4969322;28;20062;-75
2022/12/25 12:09:35;;;;;;;12.45;4.57;;;21.90;99.90;;;;;;4969420;28;20121;-75
2022/12/25 12:12:08;;;;;;;8.80;3.60;;;21.90;99.90;;;;;;4970272;28;20498;-70
2022/12/25 12:14:47;;;;;;;9.77;3.67;;;21.80;99.90;;;;;;4969547;28;20069;-74
2022/12/25 12:17:15;;;;;;;9.63;4.00;;;21.70;99.90;;;;;;4969609;28;20128;-77
2022/12/25 12:19:41;;;;;;;12.88;3.80;;;21.60;99.90;;;;;;4967709;28;20046;-77
2022/12/25 12:22:20;;;;;;;11.20;3.78;;;21.50;99.90;;;;;;4969823;28;20027;-76
2022/12/25 12:24:55;;;;;;;13.20;3.83;;;21.50;99.90;;;;;;4970189;28;20046;-77
2022/12/25 12:27:36;;;;;;;11.30;3.80;;;21.50;99.90;;;;;;4984385;28;20045;-78
2022/12/25 12:30:30;;;;;;;11.90;3.90;;;21.40;99.90;;;;;;4996865;28;20033;-77
2022/12/25 12:33:00;;;;;;;13.65;3.95;;;21.40;99.90;;;;;;4991599;28;20053;-78
2022/12/25 12:35:30;;;;;;;13.73;4.13;;;21.30;99.90;;;;;;4995337;28;20038;-77
2022/12/25 12:38:18;;;;;;;10.50;4.07;;;21.10;99.90;;;;;;4997081;28;20022;-71
2022/12/25 12:41:07;;;;;;;13.43;4.20;;;21.00;99.90;;;;;;4998863;28;20124;-78
2022/12/25 12:43:38;;;;;;;12.35;3.78;;;21.00;99.90;;;;;;4994405;28;20085;-77
2022/12/25 12:46:18;;;;;;;10.40;3.88;;;21.00;99.90;;;;;;4995047;28;20034;-77
2022/12/25 12:49:21;;;;;;;9.55;3.70;;;21.00;99.90;;;;;;4995878;28;20034;-75
2022/12/25 12:51:49;;;;;;;12.63;3.58;;;21.00;99.90;;;;;;5014535;28;20136;-76
2022/12/25 12:54:20;;;;;;;10.93;3.45;;;21.00;99.90;;;;;;5012906;28;20038;-77
2022/12/25 12:57:20;;;;;;;11.73;3.30;;;21.00;99.90;;;;;;5014471;28;20144;-77
2022/12/25 12:59:46;;;;;;;12.45;3.53;;;20.80;99.90;;;;;;5004838;28;20120;-76
2022/12/25 13:02:30;;;;;;;8.27;3.22;;;20.80;99.90;;;;;;4998689;28;20033;-78
2022/12/25 13:05:07;;;;;;;12.82;3.95;;;20.80;99.90;;;;;;5014266;28;20430;-78
2022/12/25 13:07:43;;;;;;;;;;;20.90;99.90;;;;;;5014846;28;20022;-78
2022/12/25 13:10:40;;;;;;;12.23;4.03;;;20.90;99.90;;;;;;5012731;28;20427;-78
2022/12/25 13:13:16;;;;;;;9.43;2.80;;;20.80;99.90;;;;;;5013713;28;20026;-78
2022/12/25 13:15:47;;;;;;;10.25;3.67;;;20.90;99.90;;;;;;5013869;28;20474;-78
2022/12/25 13:18:19;;;;;;;9.10;3.50;;;20.90;99.90;;;;;;5013164;28;20018;-78
2022/12/25 13:20:53;;;;;;;10.45;3.40;;;20.70;99.90;;;;;;5013217;28;20034;-78
2022/12/25 13:23:24;;;;;;;9.77;3.33;;;20.70;99.90;;;;;;5014007;28;20105;-78
2022/12/25 13:25:56;;;;;;;15.00;3.80;;;20.70;99.90;;;;;;4995708;28;20029;-75
2022/12/25 13:28:31;;;;;;;10.65;3.63;;;20.80;99.90;;;;;;5013421;28;20177;-78
2022/12/25 13:31:24;;;;;;;10.40;4.85;;;20.90;99.90;;;;;;5012877;28;20033;-76
2022/12/25 13:34:01;;;;;;;10.63;3.95;;;20.90;99.90;;;;;;5013205;28;20105;-77
2022/12/25 13:36:34;;;;;;;14.55;4.43;;;20.70;99.90;;;;;;5013348;28;20034;-77
2022/12/25 13:39:00;;;;;;;10.80;3.58;;;20.70;99.90;;;;;;5011331;28;20101;-76
2022/12/25 13:44:36;;;;;;;11.73;3.25;;;20.80;99.90;;;;;;5013306;28;20149;-77
2022/12/25 13:47:23;;;;;;;7.95;3.20;;;20.60;99.90;;;;;;5013490;28;20092;-78
2022/12/25 13:49:51;;;;;;;9.13;3.40;;;20.70;99.90;;;;;;5012008;28;20022;-78
2022/12/25 13:52:26;;;;;;;10.65;3.30;;;20.60;99.90;;;;;;5012677;28;20030;-77
2022/12/25 13:54:57;;;;;;;8.00;3.03;;;20.50;99.90;;;;;;5012419;28;20037;-78
2022/12/25 13:57:28;;;;;;;10.27;3.10;;;20.50;99.90;;;;;;5013585;28;20525;-77
2022/12/25 13:59:55;;;;;;;10.95;3.47;;;20.40;99.90;;;;;;4994903;28;20567;-78
2022/12/25 14:02:27;;;;;;;9.68;3.45;;;20.40;99.90;;;;;;5011542;28;20033;-78
2022/12/25 14:04:54;;;;;;;9.50;3.20;;;20.50;99.90;;;;;;5013163;28;20037;-77
2022/12/25 14:07:25;;;;;;;9.02;3.65;;;20.60;99.90;;;;;;5012924;28;20498;-76
2022/12/25 14:10:02;;;;;;;9.82;3.30;;;20.70;99.90;;;;;;5009381;28;20174;-76
2022/12/25 14:12:30;;;;;;;7.88;3.47;;;20.80;99.90;;;;;;5012803;28;20026;-78
2022/12/25 14:14:58;;;;;;;11.30;3.50;;;20.70;99.90;;;;;;5012487;28;20026;-78
2022/12/25 14:17:24;;;;;;;12.77;3.70;;;20.70;99.90;;;;;;5012720;28;20469;-78
2022/12/25 14:19:58;;;;;;;9.18;3.35;;;20.50;99.90;;;;;;5008769;28;20516;-73
2022/12/25 14:22:25;;;;;;;14.20;3.72;;;20.40;99.90;;;;;;5003972;28;20022;-75
2022/12/25 14:24:52;;;;;;;8.73;3.50;;;20.30;99.90;;;;;;4993504;28;20033;-74
2022/12/25 14:27:26;;;;;;;11.18;3.15;;;20.30;99.90;;;;;;4993747;28;20022;-76
2022/12/25 14:29:55;;;;;;;10.07;3.25;;;20.30;99.90;;;;;;5000528;28;20175;-76
2022/12/25 14:35:55;;;;;;;9.32;3.40;;;20.20;99.90;;;;;;5016731;23;20053;-72
2022/12/25 14:38:44;;;;;;;13.77;3.65;;;20.20;99.90;;;;;;5025736;23;20058;-73
2022/12/25 14:42:06;;;;;;;11.27;3.45;;;20.10;99.90;;;;;;5021956;28;20176;-73
2022/12/25 14:44:40;;;;;;;9.55;3.30;;;20.20;99.90;;;;;;4914380;29;20052;-72
2022/12/25 14:48:07;;;;;;;9.27;3.15;;;20.10;99.90;;;;;;5121436;23;20395;-72
2022/12/25 14:51:01;;;;;;;8.93;2.88;;;20.00;99.90;;;;;;4991631;28;20057;-73
2022/12/25 14:53:50;;;;;;;9.07;3.20;;;19.40;99.90;;;;;;4975755;28;20022;-72
2022/12/25 14:56:22;;;;;;;9.20;3.17;;;19.40;99.90;;;;;;4992403;28;20056;-72
2022/12/25 14:59:08;;;;;;;8.18;3.17;;;19.50;99.90;;;;;;4993244;28;20331;-73
2022/12/25 15:01:54;;;;;;;10.55;3.42;;;19.40;99.90;;;;;;4993340;28;20058;-73
2022/12/25 15:04:28;;;;;;;7.18;2.80;;;19.40;99.90;;;;;;4991324;28;20427;-73
2022/12/25 15:07:42;;;;;;;11.65;3.35;;;19.40;99.90;;;;;;4992921;28;20391;-72
2022/12/25 15:10:12;;;;;;;12.00;3.42;;;19.40;99.90;;;;;;4958981;28;20106;-75
2022/12/25 15:12:40;;;;;;;11.20;3.40;;;19.40;99.90;;;;;;5011601;28;20101;-71